sensor_id;sensor_type;location;lat;lon;timestamp;P1;durP1;ratioP1;P2;durP2;ratioP2
10142;SDS011;5112;54.088;13.446;2023-02-01T00:07:16;13.57;;;3.90;;
10142;SDS011;5112;54.088;13.446;2023-02-01T00:17:17;9.50;;;2.93;;
10142;SDS011;5112;54.088;13.446;2023-02-01T00:27:20;12.87;;;3.07;;
10142;SDS011;5112;54.088;13.446;2023-02-01T00:37:22;14.63;;;3.97;;
10142;SDS011;5112;54.088;13.446;2023-02-01T00:47:25;9.77;;;3.00;;
10142;SDS011;5112;54.088;13.446;2023-02-01T00:57:27;13.03;;;3.63;;
10142;SDS011;5112;54.088;13.446;2023-02-01T01:07:30;15.63;;;3.87;;
10142;SDS011;5112;54.088;13.446;2023-02-01T01:17:31;16.57;;;3.97;;
10142;SDS011;5112;54.088;13.446;2023-02-01T01:27:35;14.93;;;3.43;;
10142;SDS011;5112;54.088;13.446;2023-02-01T01:37:36;13.20;;;3.63;;
10142;SDS011;5112;54.088;13.446;2023-02-01T01:47:40;12.47;;;5.33;;
10142;SDS011;5112;54.088;13.446;2023-02-01T01:57:48;8.37;;;3.30;;
10142;SDS011;5112;54.088;13.446;2023-02-01T02:07:57;10.80;;;3.20;;
10142;SDS011;5112;54.088;13.446;2023-02-01T02:18:03;10.33;;;3.23;;
10142;SDS011;5112;54.088;13.446;2023-02-01T02:28:15;10.60;;;3.17;;
10142;SDS011;5112;54.088;13.446;2023-02-01T02:38:32;14.43;;;4.73;;
10142;SDS011;5112;54.088;13.446;2023-02-01T02:48:42;19.67;;;3.47;;
10142;SDS011;5112;54.088;13.446;2023-02-01T02:58:51;10.90;;;3.17;;
10142;SDS011;5112;54.088;13.446;2023-02-01T03:09:13;11.57;;;2.90;;
10142;SDS011;5112;54.088;13.446;2023-02-01T03:19:21;11.93;;;3.40;;
10142;SDS011;5112;54.088;13.446;2023-02-01T03:29:27;8.53;;;3.13;;
10142;SDS011;5112;54.088;13.446;2023-02-01T03:39:36;10.03;;;3.13;;
10142;SDS011;5112;54.088;13.446;2023-02-01T03:49:43;10.03;;;2.67;;
10142;SDS011;5112;54.088;13.446;2023-02-01T03:59:48;7.17;;;2.20;;
10142;SDS011;5112;54.088;13.446;2023-02-01T04:09:50;12.67;;;2.43;;
10142;SDS011;5112;54.088;13.446;2023-02-01T04:19:53;9.47;;;2.90;;
10142;SDS011;5112;54.088;13.446;2023-02-01T04:29:55;11.27;;;2.70;;
10142;SDS011;5112;54.088;13.446;2023-02-01T04:39:58;7.67;;;2.70;;
10142;SDS011;5112;54.088;13.446;2023-02-01T04:49:59;11.20;;;2.53;;
10142;SDS011;5112;54.088;13.446;2023-02-01T05:00:03;12.60;;;2.93;;
10142;SDS011;5112;54.088;13.446;2023-02-01T05:10:06;7.07;;;2.93;;
10142;SDS011;5112;54.088;13.446;2023-02-01T05:20:10;9.50;;;3.10;;
10142;SDS011;5112;54.088;13.446;2023-02-01T05:30:12;8.67;;;2.50;;
10142;SDS011;5112;54.088;13.446;2023-02-01T05:40:16;11.73;;;3.25;;
10142;SDS011;5112;54.088;13.446;2023-02-01T05:50:18;11.70;;;3.90;;
10142;SDS011;5112;54.088;13.446;2023-02-01T06:00:22;16.87;;;3.90;;
10142;SDS011;5112;54.088;13.446;2023-02-01T06:10:24;18.13;;;4.70;;
10142;SDS011;5112;54.088;13.446;2023-02-01T06:20:27;15.30;;;4.50;;
10142;SDS011;5112;54.088;13.446;2023-02-01T06:30:28;23.02;;;6.18;;
10142;SDS011;5112;54.088;13.446;2023-02-01T06:40:31;22.23;;;6.40;;
10142;SDS011;5112;54.088;13.446;2023-02-01T06:50:33;21.43;;;5.70;;
10142;SDS011;5112;54.088;13.446;2023-02-01T07:00:37;17.23;;;5.13;;
10142;SDS011;5112;54.088;13.446;2023-02-01T07:10:39;20.70;;;4.90;;
10142;SDS011;5112;54.088;13.446;2023-02-01T07:20:42;22.13;;;5.33;;
10142;SDS011;5112;54.088;13.446;2023-02-01T07:30:44;13.73;;;4.40;;
10142;SDS011;5112;54.088;13.446;2023-02-01T07:40:55;11.10;;;3.57;;
10142;SDS011;5112;54.088;13.446;2023-02-01T07:50:58;11.17;;;3.67;;
10142;SDS011;5112;54.088;13.446;2023-02-01T08:01:01;7.63;;;3.17;;
10142;SDS011;5112;54.088;13.446;2023-02-01T08:11:23;5.57;;;2.43;;
10142;SDS011;5112;54.088;13.446;2023-02-01T08:21:27;6.23;;;2.57;;
10142;SDS011;5112;54.088;13.446;2023-02-01T08:31:36;8.07;;;2.30;;
10142;SDS011;5112;54.088;13.446;2023-02-01T08:41:41;7.73;;;2.50;;
10142;SDS011;5112;54.088;13.446;2023-02-01T08:52:03;5.47;;;1.47;;
10142;SDS011;5112;54.088;13.446;2023-02-01T09:02:08;4.40;;;1.70;;
10142;SDS011;5112;54.088;13.446;2023-02-01T09:12:12;7.80;;;1.73;;
10142;SDS011;5112;54.088;13.446;2023-02-01T09:22:15;3.30;;;1.43;;
10142;SDS011;5112;54.088;13.446;2023-02-01T09:32:18;3.83;;;1.53;;
10142;SDS011;5112;54.088;13.446;2023-02-01T09:42:25;1.53;;;1.03;;
10142;SDS011;5112;54.088;13.446;2023-02-01T09:52:43;2.60;;;0.87;;
10142;SDS011;5112;54.088;13.446;2023-02-01T10:02:48;4.33;;;1.23;;
10142;SDS011;5112;54.088;13.446;2023-02-01T10:23:21;4.47;;;1.53;;
10142;SDS011;5112;54.088;13.446;2023-02-01T10:33:33;1.60;;;1.10;;
10142;SDS011;5112;54.088;13.446;2023-02-01T10:43:40;3.00;;;1.30;;
10142;SDS011;5112;54.088;13.446;2023-02-01T10:53:44;3.10;;;1.47;;
10142;SDS011;5112;54.088;13.446;2023-02-01T11:03:53;4.97;;;1.80;;
10142;SDS011;5112;54.088;13.446;2023-02-01T11:13:56;2.40;;;1.30;;
10142;SDS011;5112;54.088;13.446;2023-02-01T11:24:01;3.00;;;1.17;;
10142;SDS011;5112;54.088;13.446;2023-02-01T11:34:06;4.73;;;1.67;;
10142;SDS011;5112;54.088;13.446;2023-02-01T11:44:22;2.53;;;1.30;;
10142;SDS011;5112;54.088;13.446;2023-02-01T11:54:48;1.30;;;0.80;;
10142;SDS011;5112;54.088;13.446;2023-02-01T12:05:05;1.03;;;0.73;;
10142;SDS011;5112;54.088;13.446;2023-02-01T12:15:29;4.43;;;1.10;;
10142;SDS011;5112;54.088;13.446;2023-02-01T12:25:56;4.20;;;1.40;;
10142;SDS011;5112;54.088;13.446;2023-02-01T12:36:08;4.37;;;1.70;;
10142;SDS011;5112;54.088;13.446;2023-02-01T12:46:16;6.17;;;1.90;;
10142;SDS011;5112;54.088;13.446;2023-02-01T12:56:23;2.93;;;1.50;;
10142;SDS011;5112;54.088;13.446;2023-02-01T13:06:33;5.20;;;1.43;;
10142;SDS011;5112;54.088;13.446;2023-02-01T13:16:38;5.50;;;1.73;;
10142;SDS011;5112;54.088;13.446;2023-02-01T13:26:45;4.33;;;1.47;;
10142;SDS011;5112;54.088;13.446;2023-02-01T13:36:49;5.10;;;1.50;;
10142;SDS011;5112;54.088;13.446;2023-02-01T13:47:03;5.20;;;2.80;;
10142;SDS011;5112;54.088;13.446;2023-02-01T13:57:31;7.10;;;2.43;;
10142;SDS011;5112;54.088;13.446;2023-02-01T14:07:43;12.40;;;2.87;;
10142;SDS011;5112;54.088;13.446;2023-02-01T14:28:49;7.80;;;2.60;;
10142;SDS011;5112;54.088;13.446;2023-02-01T14:38:54;6.67;;;1.97;;
10142;SDS011;5112;54.088;13.446;2023-02-01T14:48:57;4.97;;;1.23;;
10142;SDS011;5112;54.088;13.446;2023-02-01T14:59:00;4.83;;;1.90;;
10142;SDS011;5112;54.088;13.446;2023-02-01T15:09:11;2.80;;;1.33;;
10142;SDS011;5112;54.088;13.446;2023-02-01T15:19:15;2.90;;;1.00;;
10142;SDS011;5112;54.088;13.446;2023-02-01T15:29:18;3.00;;;0.80;;
10142;SDS011;5112;54.088;13.446;2023-02-01T15:39:22;1.63;;;1.10;;
10142;SDS011;5112;54.088;13.446;2023-02-01T15:49:27;2.83;;;1.33;;
10142;SDS011;5112;54.088;13.446;2023-02-01T15:59:32;3.57;;;1.77;;
10142;SDS011;5112;54.088;13.446;2023-02-01T16:09:40;4.97;;;2.00;;
10142;SDS011;5112;54.088;13.446;2023-02-01T16:19:52;3.97;;;1.90;;
10142;SDS011;5112;54.088;13.446;2023-02-01T16:29:55;8.60;;;2.30;;
10142;SDS011;5112;54.088;13.446;2023-02-01T16:39:57;9.40;;;2.30;;
10142;SDS011;5112;54.088;13.446;2023-02-01T16:50:00;7.13;;;2.13;;
10142;SDS011;5112;54.088;13.446;2023-02-01T17:00:02;8.30;;;2.40;;
10142;SDS011;5112;54.088;13.446;2023-02-01T17:10:08;12.27;;;3.00;;
10142;SDS011;5112;54.088;13.446;2023-02-01T17:20:23;5.73;;;3.13;;
10142;SDS011;5112;54.088;13.446;2023-02-01T17:30:27;8.27;;;2.40;;
10142;SDS011;5112;54.088;13.446;2023-02-01T17:40:30;7.37;;;2.50;;
10142;SDS011;5112;54.088;13.446;2023-02-01T17:50:35;8.77;;;2.20;;
10142;SDS011;5112;54.088;13.446;2023-02-01T18:00:47;9.13;;;2.23;;
10142;SDS011;5112;54.088;13.446;2023-02-01T18:10:51;12.32;;;3.92;;
10142;SDS011;5112;54.088;13.446;2023-02-01T18:20:58;8.32;;;3.00;;
10142;SDS011;5112;54.088;13.446;2023-02-01T18:31:01;14.67;;;3.23;;
10142;SDS011;5112;54.088;13.446;2023-02-01T18:41:07;14.50;;;3.97;;
10142;SDS011;5112;54.088;13.446;2023-02-01T18:51:15;10.60;;;3.93;;
10142;SDS011;5112;54.088;13.446;2023-02-01T19:01:19;15.77;;;4.33;;
10142;SDS011;5112;54.088;13.446;2023-02-01T19:11:23;17.00;;;4.63;;
10142;SDS011;5112;54.088;13.446;2023-02-01T19:21:25;17.20;;;5.72;;
10142;SDS011;5112;54.088;13.446;2023-02-01T19:31:28;19.50;;;5.50;;
10142;SDS011;5112;54.088;13.446;2023-02-01T19:41:30;19.07;;;6.03;;
10142;SDS011;5112;54.088;13.446;2023-02-01T19:51:32;13.90;;;4.80;;
10142;SDS011;5112;54.088;13.446;2023-02-01T20:01:34;14.97;;;4.90;;
10142;SDS011;5112;54.088;13.446;2023-02-01T20:11:38;11.40;;;3.47;;
10142;SDS011;5112;54.088;13.446;2023-02-01T20:21:40;19.83;;;4.60;;
10142;SDS011;5112;54.088;13.446;2023-02-01T20:31:44;21.30;;;5.50;;
10142;SDS011;5112;54.088;13.446;2023-02-01T20:41:46;13.57;;;4.57;;
10142;SDS011;5112;54.088;13.446;2023-02-01T20:51:49;17.47;;;3.93;;
10142;SDS011;5112;54.088;13.446;2023-02-01T21:01:51;18.00;;;5.63;;
10142;SDS011;5112;54.088;13.446;2023-02-01T21:11:54;14.97;;;4.97;;
10142;SDS011;5112;54.088;13.446;2023-02-01T21:21:56;18.63;;;5.00;;
10142;SDS011;5112;54.088;13.446;2023-02-01T21:31:59;15.93;;;5.27;;
10142;SDS011;5112;54.088;13.446;2023-02-01T21:42:01;12.53;;;4.30;;
10142;SDS011;5112;54.088;13.446;2023-02-01T21:52:17;17.37;;;3.87;;
10142;SDS011;5112;54.088;13.446;2023-02-01T22:02:19;11.57;;;3.30;;
10142;SDS011;5112;54.088;13.446;2023-02-01T22:12:22;14.20;;;3.73;;
10142;SDS011;5112;54.088;13.446;2023-02-01T22:22:23;8.40;;;3.23;;
10142;SDS011;5112;54.088;13.446;2023-02-01T22:32:26;12.90;;;3.50;;
10142;SDS011;5112;54.088;13.446;2023-02-01T22:42:28;15.40;;;3.60;;
10142;SDS011;5112;54.088;13.446;2023-02-01T22:52:32;15.63;;;3.93;;
10142;SDS011;5112;54.088;13.446;2023-02-01T23:02:33;8.90;;;2.83;;
10142;SDS011;5112;54.088;13.446;2023-02-01T23:12:36;10.70;;;3.07;;
10142;SDS011;5112;54.088;13.446;2023-02-01T23:22:38;13.30;;;3.20;;
10142;SDS011;5112;54.088;13.446;2023-02-01T23:32:41;8.33;;;2.87;;
10142;SDS011;5112;54.088;13.446;2023-02-01T23:42:43;11.47;;;3.60;;
10142;SDS011;5112;54.088;13.446;2023-02-01T23:53:06;10.40;;;2.77;;
